Time;durP1;ratioP1;P1;durP2;ratioP2;P2;SDS_P1;SDS_P2;PMS_P1;PMS_P2;Temp;Humidity;BMP_temperature;BMP_pressure;BME280_temperature;BME280_humidity;BME280_pressure;Samples;Min_cycle;Max_cycle;Signal;HPM_P1;HPM_P2
2021/05/22 00:00:19;;;;;;;6.25;1.45;;;13.00;97.60;;;;;;2065621;28;20030;-68
2021/05/22 00:01:20;;;;;;;3.60;1.00;;;13.00;97.80;;;;;;2065257;28;20045;-69
2021/05/22 00:02:20;;;;;;;3.75;1.35;;;13.00;97.70;;;;;;2065015;28;20105;-68
2021/05/22 00:03:21;;;;;;;2.85;1.17;;;13.00;97.60;;;;;;2065209;28;20026;-68
2021/05/22 00:04:22;;;;;;;3.20;0.90;;;13.00;97.70;;;;;;2065924;28;20030;-68
2021/05/22 00:05:22;;;;;;;4.13;1.20;;;13.00;98.10;;;;;;2065253;28;20383;-68
2021/05/22 00:06:23;;;;;;;4.63;1.20;;;12.90;97.80;;;;;;2065845;28;20123;-68
2021/05/22 00:07:23;;;;;;;3.13;1.27;;;12.90;97.90;;;;;;2065689;28;20410;-68
2021/05/22 00:08:24;;;;;;;5.47;1.60;;;12.90;97.90;;;;;;2065676;28;20030;-68
2021/05/22 00:09:24;;;;;;;5.65;1.40;;;12.90;97.90;;;;;;2065338;28;20031;-68
2021/05/22 00:10:25;;;;;;;7.78;1.83;;;12.90;98.30;;;;;;2065604;28;20093;-68
2021/05/22 00:11:26;;;;;;;2.00;1.10;;;12.90;98.00;;;;;;2065133;28;20478;-68
2021/05/22 00:12:26;;;;;;;4.25;1.10;;;12.90;97.90;;;;;;2065036;28;20471;-68
2021/05/22 00:13:27;;;;;;;2.00;1.23;;;12.90;98.00;;;;;;2065558;28;20057;-68
2021/05/22 00:14:27;;;;;;;3.85;1.13;;;12.90;98.10;;;;;;2064960;28;20028;-68
2021/05/22 00:15:28;;;;;;;2.58;1.27;;;12.90;98.10;;;;;;2064829;28;20034;-68
2021/05/22 00:16:29;;;;;;;7.38;1.38;;;12.90;98.10;;;;;;2065333;28;20034;-68
2021/05/22 00:17:30;;;;;;;3.47;1.30;;;12.90;98.10;;;;;;2065666;28;20073;-68
2021/05/22 00:18:30;;;;;;;3.88;0.70;;;12.90;98.20;;;;;;2065340;28;20026;-69
2021/05/22 00:19:31;;;;;;;3.88;1.15;;;12.80;98.30;;;;;;2065694;28;20034;-69
2021/05/22 00:20:31;;;;;;;4.53;1.48;;;12.80;98.20;;;;;;2065602;28;20564;-68
2021/05/22 00:21:32;;;;;;;4.38;1.00;;;12.80;98.10;;;;;;2065453;28;20117;-68
2021/05/22 00:22:33;;;;;;;3.40;1.13;;;12.80;98.20;;;;;;2064671;28;20486;-68
2021/05/22 00:23:34;;;;;;;7.65;1.42;;;12.80;98.30;;;;;;2065547;28;20030;-68
2021/05/22 00:24:34;;;;;;;4.55;1.35;;;12.80;98.30;;;;;;2072812;28;20419;-68
2021/05/22 00:25:35;;;;;;;4.47;1.70;;;12.80;98.40;;;;;;2073217;28;20053;-68
2021/05/22 00:26:35;;;;;;;4.03;1.35;;;12.80;98.40;;;;;;2065272;28;20054;-68
2021/05/22 00:27:36;;;;;;;4.40;1.63;;;12.80;98.40;;;;;;2065401;28;20084;-68
2021/05/22 00:28:36;;;;;;;4.22;1.40;;;12.80;98.40;;;;;;2064846;28;20407;-68
2021/05/22 00:29:37;;;;;;;4.30;1.15;;;12.80;98.40;;;;;;2065151;28;20057;-68
2021/05/22 00:30:37;;;;;;;3.50;1.40;;;12.80;98.50;;;;;;2065305;28;20092;-68
2021/05/22 00:31:38;;;;;;;1.63;0.85;;;12.80;98.30;;;;;;2065680;28;20030;-68
2021/05/22 00:32:39;;;;;;;6.13;1.42;;;12.80;98.40;;;;;;2064654;28;20520;-68
2021/05/22 00:33:40;;;;;;;5.32;1.10;;;12.80;98.40;;;;;;2065683;28;20050;-68
2021/05/22 00:34:40;;;;;;;3.28;1.30;;;12.80;98.50;;;;;;2065133;28;20034;-68
2021/05/22 00:35:43;;;;;;;4.40;1.20;;;12.80;98.50;;;;;;2065482;28;20466;-68
2021/05/22 00:36:43;;;;;;;4.50;1.38;;;12.70;98.40;;;;;;2065275;28;20359;-68
2021/05/22 00:37:44;;;;;;;5.18;1.42;;;12.70;98.40;;;;;;2065759;28;20053;-68
2021/05/22 00:38:45;;;;;;;3.08;1.27;;;12.70;98.40;;;;;;2065217;28;20031;-68
2021/05/22 00:39:45;;;;;;;4.65;1.55;;;12.70;98.30;;;;;;2065502;28;20022;-68
2021/05/22 00:40:46;;;;;;;4.32;1.45;;;12.70;98.40;;;;;;2065346;28;20030;-68
2021/05/22 00:41:46;;;;;;;5.82;1.65;;;12.70;98.50;;;;;;2065633;28;20022;-68
2021/05/22 00:42:47;;;;;;;4.43;1.20;;;12.70;98.50;;;;;;2064527;28;20081;-68
2021/05/22 00:43:48;;;;;;;4.68;1.33;;;12.70;98.50;;;;;;2065313;28;20445;-68
2021/05/22 00:45:12;;;;;;;6.28;1.25;;;12.70;98.50;;;;;;2065050;28;20022;-68
2021/05/22 00:46:12;;;;;;;5.22;1.30;;;12.70;99.30;;;;;;2065654;28;20038;-68
2021/05/22 00:47:13;;;;;;;3.63;1.00;;;12.70;98.60;;;;;;2065439;28;20057;-68
2021/05/22 00:48:14;;;;;;;3.53;1.30;;;12.70;98.70;;;;;;2065486;28;20113;-68
2021/05/22 00:49:14;;;;;;;1.92;0.85;;;12.60;98.70;;;;;;2065320;28;20101;-68
2021/05/22 00:50:23;;;;;;;5.55;1.48;;;12.60;98.60;;;;;;2065117;28;20034;-68
2021/05/22 00:51:24;;;;;;;2.75;1.02;;;12.60;99.30;;;;;;2064716;28;20026;-68
2021/05/22 00:52:25;;;;;;;3.88;1.02;;;12.60;98.60;;;;;;2064595;28;20030;-68
2021/05/22 00:53:27;;;;;;;5.45;1.20;;;12.60;98.80;;;;;;2063715;28;20129;-68
2021/05/22 00:54:27;;;;;;;3.38;0.90;;;12.60;98.70;;;;;;2064261;28;20045;-68
2021/05/22 00:55:28;;;;;;;4.60;1.20;;;12.60;98.80;;;;;;2063830;28;20022;-68
2021/05/22 00:56:29;;;;;;;5.72;1.70;;;12.60;98.80;;;;;;2071108;28;20025;-68
2021/05/22 00:57:30;;;;;;;6.72;1.40;;;12.60;98.70;;;;;;2071877;28;20026;-68
2021/05/22 00:58:32;;;;;;;3.63;1.13;;;12.60;98.90;;;;;;2064283;28;20037;-68
2021/05/22 00:59:33;;;;;;;3.65;1.15;;;12.60;98.90;;;;;;2063953;28;20054;-68
2021/05/22 01:00:44;;;;;;;7.72;1.63;;;12.60;98.90;;;;;;2064138;28;20033;-68
2021/05/22 01:01:45;;;;;;;5.97;1.40;;;12.60;99.40;;;;;;2064204;28;20041;-68
2021/05/22 01:02:48;;;;;;;4.13;0.90;;;12.50;98.90;;;;;;2063586;28;20493;-68
2021/05/22 01:03:51;;;;;;;3.70;1.35;;;12.50;99.10;;;;;;2064325;28;20113;-68
2021/05/22 01:04:54;;;;;;;5.18;1.33;;;12.50;98.90;;;;;;2063944;28;20036;-68
2021/05/22 01:06:18;;;;;;;7.30;1.75;;;12.50;98.90;;;;;;2063905;28;20419;-68
2021/05/22 01:07:19;;;;;;;3.20;1.13;;;12.50;99.40;;;;;;2064417;28;20026;-68
2021/05/22 01:08:23;;;;;;;3.38;1.27;;;12.50;98.70;;;;;;2064041;28;20589;-68
2021/05/22 01:09:24;;;;;;;5.13;1.63;;;12.50;98.90;;;;;;2064070;28;20038;-68
2021/05/22 01:10:25;;;;;;;4.47;0.93;;;12.50;98.80;;;;;;2063843;28;20109;-68
2021/05/22 01:11:29;;;;;;;2.83;1.20;;;12.50;98.80;;;;;;2064081;28;20030;-68
2021/05/22 01:12:41;;;;;;;3.58;0.80;;;12.50;98.90;;;;;;2063351;28;20026;-68
2021/05/22 01:13:44;;;;;;;3.15;1.20;;;12.50;99.00;;;;;;2059716;28;20026;-68
2021/05/22 01:14:49;;;;;;;2.88;1.00;;;12.40;98.70;;;;;;2063559;28;20053;-68
2021/05/22 01:15:54;;;;;;;3.70;1.17;;;12.40;98.70;;;;;;2060889;28;20646;-68
2021/05/22 01:16:57;;;;;;;3.03;1.17;;;12.40;99.00;;;;;;2064286;28;20129;-68
2021/05/22 01:17:57;;;;;;;2.75;1.17;;;12.40;98.90;;;;;;2063799;28;20018;-68
2021/05/22 01:19:00;;;;;;;2.92;1.25;;;12.40;98.60;;;;;;2064013;28;20040;-68
2021/05/22 01:20:00;;;;;;;2.92;1.05;;;12.40;98.80;;;;;;2063699;28;20092;-68
2021/05/22 01:21:03;;;;;;;3.53;1.10;;;12.40;98.70;;;;;;2064164;28;20030;-68
2021/05/22 01:22:05;;;;;;;3.55;1.10;;;12.40;98.60;;;;;;2063974;28;20103;-68
2021/05/22 01:23:20;;;;;;;2.72;1.23;;;12.40;98.60;;;;;;2070444;28;20668;-68
2021/05/22 01:24:23;;;;;;;4.38;1.35;;;12.40;98.80;;;;;;2065612;28;20416;-68
2021/05/22 01:25:36;;;;;;;2.83;0.90;;;12.40;98.80;;;;;;2064380;28;20161;-68
2021/05/22 01:26:37;;;;;;;5.25;1.30;;;12.40;99.00;;;;;;2064037;28;20026;-68
2021/05/22 01:27:38;;;;;;;3.72;1.13;;;12.40;98.70;;;;;;2063598;28;20034;-68
2021/05/22 01:28:39;;;;;;;3.75;1.27;;;12.30;98.80;;;;;;2064299;28;20026;-68
2021/05/22 01:29:40;;;;;;;5.10;1.27;;;12.30;98.90;;;;;;2063778;28;20073;-68
2021/05/22 01:30:43;;;;;;;5.85;1.48;;;12.30;98.80;;;;;;2063841;28;20030;-68
2021/05/22 01:31:44;;;;;;;2.00;0.85;;;12.30;98.90;;;;;;2063884;28;20041;-68
2021/05/22 01:32:45;;;;;;;3.60;1.27;;;12.30;98.90;;;;;;2063335;28;20034;-68
2021/05/22 01:33:46;;;;;;;8.25;1.02;;;12.30;98.80;;;;;;2063687;28;20378;-68
2021/05/22 01:34:47;;;;;;;4.55;1.50;;;12.30;99.00;;;;;;2063765;28;20076;-68
2021/05/22 01:35:49;;;;;;;3.13;1.38;;;12.30;99.00;;;;;;2063729;28;20066;-68
2021/05/22 01:36:50;;;;;;;2.78;0.90;;;12.30;99.10;;;;;;2063752;28;20030;-68
2021/05/22 01:37:51;;;;;;;4.55;1.20;;;12.30;99.00;;;;;;2063931;28;20388;-68
2021/05/22 01:38:51;;;;;;;4.38;1.05;;;12.30;98.70;;;;;;2063634;28;20030;-68
2021/05/22 01:39:52;;;;;;;3.03;1.23;;;12.30;99.00;;;;;;2063798;28;20498;-68
2021/05/22 01:40:53;;;;;;;5.22;1.45;;;12.30;98.90;;;;;;2063726;28;20121;-68
2021/05/22 01:41:54;;;;;;;3.03;1.02;;;12.30;98.90;;;;;;2064018;28;20030;-68
2021/05/22 01:42:54;;;;;;;2.42;1.00;;;12.30;98.90;;;;;;2063258;28;20030;-68
2021/05/22 01:44:00;;;;;;;5.07;1.48;;;12.30;99.00;;;;;;2063475;28;20026;-68
2021/05/22 01:45:03;;;;;;;5.90;1.60;;;12.30;99.10;;;;;;2063652;28;20019;-68
2021/05/22 01:46:04;;;;;;;3.25;1.48;;;12.20;99.10;;;;;;2063881;28;20458;-68
2021/05/22 01:47:05;;;;;;;4.43;1.20;;;12.20;99.00;;;;;;2063404;28;20029;-68
2021/05/22 01:48:08;;;;;;;2.83;1.10;;;12.20;99.00;;;;;;2064184;28;20031;-68
2021/05/22 01:49:11;;;;;;;4.13;1.60;;;12.20;99.10;;;;;;2063547;28;20021;-68
2021/05/22 01:50:15;;;;;;;3.10;1.20;;;12.20;99.20;;;;;;2064059;28;20105;-68
2021/05/22 01:51:19;;;;;;;2.65;1.23;;;12.20;99.40;;;;;;2063443;28;20101;-68
2021/05/22 01:52:22;;;;;;;3.80;1.10;;;12.20;99.50;;;;;;2063299;28;20475;-68
2021/05/22 01:53:23;;;;;;;3.25;1.15;;;12.10;99.60;;;;;;2063544;28;20050;-68
2021/05/22 01:54:24;;;;;;;3.60;1.02;;;12.20;99.50;;;;;;2063909;28;20037;-68
2021/05/22 01:55:26;;;;;;;5.03;1.60;;;12.10;99.40;;;;;;2063459;28;20511;-68
2021/05/22 01:56:27;;;;;;;4.60;1.20;;;12.10;99.60;;;;;;2063737;28;20035;-68
2021/05/22 01:57:28;;;;;;;4.57;1.20;;;12.10;99.40;;;;;;2063559;28;20022;-68
2021/05/22 01:58:29;;;;;;;3.70;1.27;;;12.20;99.50;;;;;;2063531;28;20489;-68
2021/05/22 01:59:29;;;;;;;4.25;1.30;;;12.10;99.50;;;;;;2063434;28;20429;-68
2021/05/22 02:00:30;;;;;;;3.47;1.27;;;12.10;99.60;;;;;;2063612;28;20026;-68
2021/05/22 02:01:31;;;;;;;6.10;1.35;;;12.10;99.70;;;;;;2065036;28;20031;-68
2021/05/22 02:02:33;;;;;;;2.28;1.05;;;12.10;99.70;;;;;;2064728;28;20027;-68
2021/05/22 02:03:41;;;;;;;5.28;0.88;;;12.10;99.90;;;;;;2064363;28;20034;-68
2021/05/22 02:04:45;;;;;;;5.40;1.23;;;12.10;99.90;;;;;;2064801;28;20033;-68
2021/05/22 02:05:51;;;;;;;3.28;1.15;;;12.10;99.90;;;;;;2064866;28;20022;-67
2021/05/22 02:06:52;;;;;;;3.88;1.75;;;12.00;99.90;;;;;;2065220;28;20117;-68
2021/05/22 02:07:56;;;;;;;2.42;1.27;;;12.00;99.90;;;;;;2064661;28;20188;-68
2021/05/22 02:08:59;;;;;;;3.97;1.30;;;12.10;99.90;;;;;;2065036;28;20044;-68
2021/05/22 02:10:00;;;;;;;5.30;1.13;;;12.10;99.90;;;;;;2064495;28;20026;-68
2021/05/22 02:11:01;;;;;;;4.50;1.35;;;12.00;99.90;;;;;;2065087;28;20041;-68
2021/05/22 02:12:04;;;;;;;4.97;1.40;;;12.00;99.90;;;;;;2064793;28;20014;-68
2021/05/22 02:13:05;;;;;;;5.60;1.30;;;12.00;99.90;;;;;;2064594;28;20462;-68
2021/05/22 02:14:08;;;;;;;4.13;1.30;;;12.00;99.90;;;;;;2064466;28;20371;-68
2021/05/22 02:15:14;;;;;;;3.67;1.23;;;12.00;99.90;;;;;;2065116;28;20022;-68
2021/05/22 02:16:21;;;;;;;2.60;1.20;;;12.00;99.90;;;;;;2064740;28;20053;-68
2021/05/22 02:17:23;;;;;;;3.13;1.30;;;12.00;99.90;;;;;;2065053;28;20375;-68
2021/05/22 02:18:25;;;;;;;3.35;1.17;;;12.00;99.90;;;;;;2064760;28;20394;-68
2021/05/22 02:19:28;;;;;;;2.70;1.00;;;12.00;99.90;;;;;;2064842;28;20038;-68
2021/05/22 02:20:31;;;;;;;3.53;1.20;;;12.00;99.90;;;;;;2064813;28;20026;-68
2021/05/22 02:21:32;;;;;;;3.30;1.20;;;12.00;99.90;;;;;;2064831;28;20387;-68
2021/05/22 02:22:35;;;;;;;4.53;1.38;;;12.00;99.90;;;;;;2063973;28;20034;-68
2021/05/22 02:23:47;;;;;;;2.60;0.98;;;12.00;99.90;;;;;;2065052;28;20153;-68
2021/05/22 02:24:50;;;;;;;2.65;1.10;;;12.00;99.90;;;;;;2064760;28;20478;-68
2021/05/22 02:25:56;;;;;;;4.68;1.33;;;12.00;99.90;;;;;;2064463;28;20391;-68
2021/05/22 02:26:58;;;;;;;3.65;1.02;;;12.00;99.90;;;;;;2064880;28;20039;-68
2021/05/22 02:28:04;;;;;;;5.68;1.08;;;12.00;99.90;;;;;;2064662;28;20026;-68
2021/05/22 02:29:06;;;;;;;3.22;1.10;;;12.00;99.90;;;;;;2064891;28;20098;-68
2021/05/22 02:30:12;;;;;;;3.47;1.20;;;12.00;99.90;;;;;;2072105;28;20084;-68
2021/05/22 02:31:13;;;;;;;6.03;1.45;;;11.90;99.90;;;;;;2071715;28;20018;-68
2021/05/22 02:32:17;;;;;;;2.88;1.00;;;12.00;99.90;;;;;;2064160;28;20510;-68
2021/05/22 02:33:19;;;;;;;4.38;1.58;;;12.00;99.90;;;;;;2064804;28;20027;-68
2021/05/22 02:34:29;;;;;;;5.78;1.40;;;12.00;99.90;;;;;;2064397;28;20033;-68
2021/05/22 02:35:31;;;;;;;2.95;1.08;;;12.00;99.90;;;;;;2064887;28;20022;-68
2021/05/22 02:36:32;;;;;;;3.22;1.40;;;12.00;99.90;;;;;;2064569;28;20029;-68
2021/05/22 02:37:35;;;;;;;4.70;1.17;;;12.00;99.90;;;;;;2064947;28;20049;-68
2021/05/22 02:38:41;;;;;;;4.60;1.45;;;12.00;99.90;;;;;;2064624;28;20390;-68
2021/05/22 02:39:43;;;;;;;6.10;1.30;;;12.00;99.90;;;;;;2064585;28;20030;-68
2021/05/22 02:40:44;;;;;;;5.35;1.17;;;12.00;99.90;;;;;;2064597;28;20026;-68
2021/05/22 02:41:47;;;;;;;5.13;1.23;;;12.00;99.90;;;;;;2064643;28;20386;-68
2021/05/22 02:42:55;;;;;;;4.93;1.33;;;12.00;99.90;;;;;;2064207;28;20036;-68
2021/05/22 02:43:59;;;;;;;2.38;1.10;;;12.00;99.90;;;;;;2064708;28;20379;-68
2021/05/22 02:45:03;;;;;;;5.57;1.30;;;12.00;99.90;;;;;;2064425;28;20026;-68
2021/05/22 02:46:05;;;;;;;6.80;1.60;;;12.00;99.80;;;;;;2064397;28;20395;-67
2021/05/22 02:47:07;;;;;;;2.45;0.80;;;12.00;99.90;;;;;;2064701;28;20041;-68
2021/05/22 02:48:13;;;;;;;6.03;1.38;;;12.00;99.90;;;;;;2064748;28;20030;-68
2021/05/22 02:49:18;;;;;;;3.42;1.45;;;12.00;99.90;;;;;;2064627;28;20022;-68
2021/05/22 02:50:20;;;;;;;2.50;1.10;;;12.00;99.90;;;;;;2064541;28;20359;-67
2021/05/22 02:51:23;;;;;;;3.10;1.23;;;12.00;99.90;;;;;;2064753;28;20133;-67
2021/05/22 02:52:26;;;;;;;2.63;0.95;;;12.00;99.90;;;;;;2064085;28;20057;-68
2021/05/22 02:53:29;;;;;;;6.25;1.42;;;12.00;99.90;;;;;;2064460;28;20088;-68
2021/05/22 02:54:31;;;;;;;6.07;1.55;;;12.00;99.90;;;;;;2064674;28;20026;-68
2021/05/22 02:55:32;;;;;;;5.18;1.25;;;12.00;99.70;;;;;;2064466;28;20097;-68
2021/05/22 02:56:35;;;;;;;3.10;1.15;;;12.00;99.70;;;;;;2064529;28;20030;-68
2021/05/22 02:57:38;;;;;;;4.65;1.20;;;12.00;99.80;;;;;;2064444;28;20112;-68
2021/05/22 02:58:42;;;;;;;2.30;1.35;;;12.00;99.70;;;;;;2064652;28;20417;-68
2021/05/22 02:59:43;;;;;;;2.50;1.13;;;12.00;99.90;;;;;;2064441;28;20045;-68
2021/05/22 03:00:44;;;;;;;3.78;1.08;;;12.00;99.80;;;;;;2064681;28;20092;-68
2021/05/22 03:01:45;;;;;;;4.90;1.63;;;12.00;99.60;;;;;;2063415;28;20026;-68
2021/05/22 03:02:47;;;;;;;3.33;1.33;;;12.10;99.70;;;;;;2062996;28;20060;-68
2021/05/22 03:03:48;;;;;;;3.63;1.13;;;12.10;99.60;;;;;;2063419;28;20094;-68
2021/05/22 03:04:49;;;;;;;3.95;1.27;;;12.10;99.70;;;;;;2063560;28;20628;-68
2021/05/22 03:05:50;;;;;;;3.60;1.20;;;12.10;99.50;;;;;;2063359;28;20030;-68
2021/05/22 03:06:51;;;;;;;6.43;1.25;;;12.00;99.50;;;;;;2063791;28;20031;-68
2021/05/22 03:07:52;;;;;;;2.30;0.93;;;12.10;99.60;;;;;;2063430;28;20426;-68
2021/05/22 03:08:52;;;;;;;2.38;1.17;;;12.10;99.40;;;;;;2063878;28;20077;-68
2021/05/22 03:09:53;;;;;;;6.20;1.50;;;12.10;99.60;;;;;;2062876;28;20042;-68
2021/05/22 03:10:54;;;;;;;4.20;1.52;;;12.10;99.60;;;;;;2063358;28;20030;-68
2021/05/22 03:11:56;;;;;;;4.72;1.10;;;12.10;99.60;;;;;;2062058;28;20030;-68
2021/05/22 03:12:56;;;;;;;3.55;1.00;;;12.10;99.90;;;;;;2062542;28;20080;-68
2021/05/22 03:13:57;;;;;;;3.08;1.10;;;12.10;99.50;;;;;;2062892;28;20030;-68
2021/05/22 03:14:57;;;;;;;2.53;1.42;;;12.10;99.60;;;;;;2063438;28;20068;-68
2021/05/22 03:15:58;;;;;;;4.22;1.40;;;12.10;99.70;;;;;;2062474;28;20022;-67
2021/05/22 03:16:59;;;;;;;4.88;1.05;;;12.10;99.50;;;;;;2063047;28;20022;-68
2021/05/22 03:17:59;;;;;;;6.25;1.13;;;12.10;99.50;;;;;;2063148;28;20025;-68
2021/05/22 03:19:00;;;;;;;7.90;1.90;;;12.10;99.30;;;;;;2063096;28;20030;-68
2021/05/22 03:20:01;;;;;;;5.22;1.70;;;12.10;99.40;;;;;;2062933;28;20320;-68
2021/05/22 03:21:02;;;;;;;6.57;1.67;;;12.20;99.50;;;;;;2062879;28;20034;-68
2021/05/22 03:22:03;;;;;;;4.75;1.25;;;12.20;99.50;;;;;;2063486;28;20022;-67
2021/05/22 03:23:03;;;;;;;4.75;1.13;;;12.20;99.50;;;;;;2062494;28;20029;-68
2021/05/22 03:24:05;;;;;;;3.70;1.30;;;12.20;99.20;;;;;;2063066;28;20058;-68
2021/05/22 03:25:06;;;;;;;4.38;1.13;;;12.20;99.30;;;;;;2062864;28;20517;-68
2021/05/22 03:26:07;;;;;;;3.92;1.00;;;12.20;99.30;;;;;;2063096;28;20022;-68
2021/05/22 03:27:08;;;;;;;3.65;1.33;;;12.20;99.20;;;;;;2062899;28;20026;-68
2021/05/22 03:28:08;;;;;;;5.10;1.13;;;12.20;99.20;;;;;;2063126;28;20031;-68
2021/05/22 03:29:09;;;;;;;5.70;1.30;;;12.20;99.20;;;;;;2062284;28;20029;-68
2021/05/22 03:30:10;;;;;;;4.32;1.40;;;12.20;99.10;;;;;;2062656;28;20033;-68
2021/05/22 03:31:11;;;;;;;7.53;1.60;;;12.30;99.00;;;;;;2062725;28;20030;-68
2021/05/22 03:32:12;;;;;;;7.82;1.23;;;12.30;99.00;;;;;;2062354;28;20110;-68
2021/05/22 03:33:12;;;;;;;4.47;1.13;;;12.30;98.90;;;;;;2063099;28;20096;-68
2021/05/22 03:34:13;;;;;;;6.15;1.80;;;12.30;98.80;;;;;;2063169;28;20022;-68
2021/05/22 03:35:13;;;;;;;2.92;1.30;;;12.30;98.60;;;;;;2062974;28;20493;-68
2021/05/22 03:36:14;;;;;;;4.63;1.05;;;12.30;98.70;;;;;;2063001;28;20034;-68
2021/05/22 03:37:15;;;;;;;6.85;1.20;;;12.30;98.70;;;;;;2062897;28;20018;-68
2021/05/22 03:38:16;;;;;;;6.13;1.30;;;12.40;98.60;;;;;;2063235;28;20026;-68
2021/05/22 03:39:18;;;;;;;3.83;0.90;;;12.40;98.70;;;;;;2062476;28;20037;-68
2021/05/22 03:40:19;;;;;;;2.90;0.77;;;12.40;98.50;;;;;;2062984;28;20061;-68
2021/05/22 03:41:19;;;;;;;2.35;1.20;;;12.40;98.70;;;;;;2063167;28;20537;-68
2021/05/22 03:42:20;;;;;;;4.30;1.20;;;12.30;98.60;;;;;;2062259;28;20466;-68
2021/05/22 03:43:20;;;;;;;3.92;1.20;;;12.40;98.60;;;;;;2062987;28;20034;-68
2021/05/22 03:44:21;;;;;;;4.93;1.45;;;12.30;98.70;;;;;;2062895;28;20813;-68
2021/05/22 03:45:22;;;;;;;4.50;1.20;;;12.30;98.60;;;;;;2062790;28;20026;-68
2021/05/22 03:46:22;;;;;;;7.50;1.23;;;12.30;98.70;;;;;;2062941;28;20027;-68
2021/05/22 03:47:23;;;;;;;3.10;0.93;;;12.30;98.50;;;;;;2062921;28;20034;-68
2021/05/22 03:48:23;;;;;;;3.67;0.95;;;12.30;98.50;;;;;;2063022;28;20612;-68
2021/05/22 03:49:24;;;;;;;4.15;1.20;;;12.30;98.40;;;;;;2063097;28;20105;-68
2021/05/22 03:50:24;;;;;;;2.13;0.90;;;12.40;98.60;;;;;;2062845;28;20034;-68
2021/05/22 03:51:25;;;;;;;4.50;1.33;;;12.30;98.40;;;;;;2062907;28;20434;-68
2021/05/22 03:52:26;;;;;;;5.65;1.25;;;12.40;98.50;;;;;;2062316;28;20493;-68
2021/05/22 03:53:26;;;;;;;6.55;1.38;;;12.40;98.20;;;;;;2062889;28;20022;-68
2021/05/22 03:54:27;;;;;;;3.50;1.38;;;12.30;98.20;;;;;;2061937;28;20026;-68
2021/05/22 03:55:27;;;;;;;3.65;1.00;;;12.40;98.50;;;;;;2062500;28;20033;-68
2021/05/22 03:56:28;;;;;;;4.38;1.17;;;12.40;98.40;;;;;;2062845;28;20026;-68
2021/05/22 03:57:28;;;;;;;7.70;2.15;;;12.40;98.60;;;;;;2063169;28;20035;-68
2021/05/22 03:58:29;;;;;;;5.65;1.20;;;12.40;98.60;;;;;;2069926;28;20470;-67
2021/05/22 03:59:29;;;;;;;5.88;1.30;;;12.40;98.60;;;;;;2070642;28;20105;-68
2021/05/22 04:00:30;;;;;;;3.85;1.00;;;12.40;98.60;;;;;;2062861;28;20030;-68
2021/05/22 04:01:31;;;;;;;3.58;1.20;;;12.40;98.60;;;;;;2062930;28;20030;-68
2021/05/22 04:02:31;;;;;;;3.58;1.10;;;12.40;98.50;;;;;;2061874;28;20404;-68
2021/05/22 04:03:32;;;;;;;3.97;1.25;;;12.40;98.40;;;;;;2062971;28;20057;-68
2021/05/22 04:04:32;;;;;;;3.63;1.60;;;12.40;98.50;;;;;;2062672;28;20038;-68
2021/05/22 04:05:34;;;;;;;4.32;1.00;;;12.50;98.50;;;;;;2063168;28;20109;-68
2021/05/22 04:06:34;;;;;;;5.32;1.08;;;12.50;98.40;;;;;;2062492;28;20030;-68
2021/05/22 04:07:35;;;;;;;5.13;1.13;;;12.50;98.40;;;;;;2063288;28;20035;-68
2021/05/22 04:08:35;;;;;;;3.63;1.30;;;12.50;98.60;;;;;;2062571;28;20454;-68
2021/05/22 04:09:36;;;;;;;6.45;1.52;;;12.50;98.50;;;;;;2063065;28;20063;-68
2021/05/22 04:10:36;;;;;;;3.92;1.38;;;12.50;98.50;;;;;;2062615;28;20106;-68
2021/05/22 04:11:37;;;;;;;4.15;1.15;;;12.50;98.50;;;;;;2063162;28;20018;-68
2021/05/22 04:12:38;;;;;;;5.88;1.35;;;12.50;98.40;;;;;;2061978;28;20058;-68
2021/05/22 04:13:38;;;;;;;4.45;1.10;;;12.50;98.60;;;;;;2063039;28;20026;-68
2021/05/22 04:14:39;;;;;;;4.40;1.25;;;12.50;98.60;;;;;;2062767;28;20367;-68
2021/05/22 04:15:40;;;;;;;7.75;1.70;;;12.50;98.60;;;;;;2062896;28;20509;-68
2021/05/22 04:16:40;;;;;;;4.05;1.67;;;12.50;98.70;;;;;;2062890;28;20449;-68
2021/05/22 04:17:41;;;;;;;7.03;2.13;;;12.50;98.80;;;;;;2062885;28;20098;-68
2021/05/22 04:18:41;;;;;;;7.45;1.98;;;12.50;98.60;;;;;;2062840;28;20422;-68
2021/05/22 04:19:42;;;;;;;4.43;1.27;;;12.50;98.50;;;;;;2062914;28;20041;-68
2021/05/22 04:20:43;;;;;;;4.03;1.35;;;12.50;98.60;;;;;;2062549;28;20046;-67
2021/05/22 04:21:43;;;;;;;3.22;1.48;;;12.50;98.50;;;;;;2063103;28;20027;-68
2021/05/22 04:22:44;;;;;;;5.22;1.15;;;12.60;98.70;;;;;;2061978;28;20502;-68
2021/05/22 04:23:44;;;;;;;3.65;1.35;;;12.60;98.80;;;;;;2062951;28;20062;-68
2021/05/22 04:24:45;;;;;;;7.45;1.50;;;12.60;98.80;;;;;;2062691;28;20031;-68
2021/05/22 04:25:46;;;;;;;5.53;1.20;;;12.50;98.80;;;;;;2062860;28;20030;-67
2021/05/22 04:26:46;;;;;;;9.52;2.33;;;12.50;98.70;;;;;;2062852;28;20026;-68
2021/05/22 04:27:47;;;;;;;4.90;1.08;;;12.50;98.60;;;;;;2062869;28;20105;-68
2021/05/22 04:28:48;;;;;;;4.60;1.13;;;12.60;98.70;;;;;;2063989;28;20080;-68
2021/05/22 04:29:48;;;;;;;3.35;1.17;;;12.60;98.70;;;;;;2064224;28;20034;-68
2021/05/22 04:30:49;;;;;;;10.05;1.33;;;12.50;98.50;;;;;;2064350;28;20132;-68
2021/05/22 04:31:49;;;;;;;5.82;1.20;;;12.60;98.70;;;;;;2064081;28;20037;-68
2021/05/22 04:32:50;;;;;;;6.32;1.40;;;12.60;98.80;;;;;;2064040;28;20461;-68
2021/05/22 04:33:50;;;;;;;5.60;1.50;;;12.50;98.60;;;;;;2064344;28;20061;-68
2021/05/22 04:34:51;;;;;;;4.80;1.33;;;12.50;98.90;;;;;;2064429;28;20022;-68
2021/05/22 04:35:52;;;;;;;6.32;1.80;;;12.50;98.90;;;;;;2064052;28;20030;-68
2021/05/22 04:36:52;;;;;;;3.78;1.40;;;12.50;98.90;;;;;;2064430;28;20474;-68
2021/05/22 04:37:53;;;;;;;4.45;1.35;;;12.50;99.00;;;;;;2064358;28;20022;-68
2021/05/22 04:38:54;;;;;;;4.60;1.20;;;12.50;99.00;;;;;;2064232;28;20065;-68
2021/05/22 04:39:55;;;;;;;5.80;1.25;;;12.60;99.10;;;;;;2064307;28;20479;-68
2021/05/22 04:40:55;;;;;;;5.18;1.30;;;12.60;99.00;;;;;;2064462;28;20101;-68
2021/05/22 04:41:56;;;;;;;4.82;1.33;;;12.60;99.10;;;;;;2064342;28;20386;-68
2021/05/22 04:42:56;;;;;;;4.43;1.40;;;12.60;99.00;;;;;;2063967;28;20022;-68
2021/05/22 04:43:57;;;;;;;4.75;1.13;;;12.60;99.00;;;;;;2063863;28;20039;-68
2021/05/22 04:44:58;;;;;;;3.15;1.17;;;12.60;99.00;;;;;;2064571;28;20049;-68
2021/05/22 04:45:58;;;;;;;4.88;1.13;;;12.60;98.90;;;;;;2063993;28;20023;-68
2021/05/22 04:46:59;;;;;;;4.72;1.40;;;12.60;98.90;;;;;;2064027;28;20033;-68
2021/05/22 04:47:59;;;;;;;4.38;1.42;;;12.60;99.00;;;;;;2071567;28;20028;-68
2021/05/22 04:49:00;;;;;;;4.63;1.30;;;12.60;98.80;;;;;;2071774;28;20044;-68
2021/05/22 04:50:03;;;;;;;4.18;1.60;;;12.60;98.80;;;;;;2064104;28;20022;-68
2021/05/22 04:51:04;;;;;;;3.20;1.00;;;12.70;98.80;;;;;;2064332;28;20035;-68
2021/05/22 04:52:05;;;;;;;5.57;1.30;;;12.70;98.90;;;;;;2064012;28;20026;-68
2021/05/22 04:53:05;;;;;;;3.38;1.00;;;12.70;98.80;;;;;;2063696;28;20069;-68
2021/05/22 04:54:08;;;;;;;6.30;1.50;;;12.70;98.70;;;;;;2063994;28;20454;-68
2021/05/22 04:55:09;;;;;;;4.25;1.40;;;12.70;98.70;;;;;;2071773;28;20022;-68
2021/05/22 04:56:09;;;;;;;4.13;1.42;;;12.70;98.80;;;;;;2071538;28;20045;-68
2021/05/22 04:57:10;;;;;;;7.20;1.23;;;12.80;98.70;;;;;;2064337;28;20069;-68
2021/05/22 04:58:10;;;;;;;6.97;1.50;;;12.70;98.60;;;;;;2063895;28;20054;-68
2021/05/22 04:59:11;;;;;;;6.18;1.98;;;12.70;99.00;;;;;;2063785;28;20053;-68
2021/05/22 05:00:12;;;;;;;7.18;1.35;;;12.70;99.10;;;;;;2063933;28;20112;-68
2021/05/22 05:01:12;;;;;;;6.95;1.52;;;12.80;99.20;;;;;;2063997;28;20033;-68
2021/05/22 05:02:13;;;;;;;3.78;1.42;;;12.80;99.00;;;;;;2063613;28;20030;-68
2021/05/22 05:03:14;;;;;;;5.25;1.58;;;12.80;99.00;;;;;;2063961;28;20159;-68
2021/05/22 05:04:14;;;;;;;4.78;1.60;;;12.80;98.90;;;;;;2063868;28;20415;-68
2021/05/22 05:05:15;;;;;;;9.05;1.90;;;12.80;99.10;;;;;;2063921;28;20494;-68
2021/05/22 05:06:16;;;;;;;3.95;1.23;;;12.80;99.10;;;;;;2064164;28;20034;-68
2021/05/22 05:07:16;;;;;;;5.13;1.95;;;12.80;99.10;;;;;;2064276;28;20038;-68
2021/05/22 05:08:21;;;;;;;3.88;1.38;;;12.80;99.20;;;;;;2064170;28;20038;-68
2021/05/22 05:09:21;;;;;;;6.15;1.30;;;12.80;99.10;;;;;;2064225;28;20042;-68
2021/05/22 05:10:22;;;;;;;3.80;1.67;;;12.80;99.30;;;;;;2064452;28;20082;-68
2021/05/22 05:11:23;;;;;;;4.88;1.65;;;12.80;99.40;;;;;;2063801;28;20069;-68
2021/05/22 05:12:23;;;;;;;5.20;1.70;;;12.80;99.30;;;;;;2063316;28;20049;-68
2021/05/22 05:13:24;;;;;;;4.75;1.58;;;12.80;99.40;;;;;;2063863;28;20081;-68
2021/05/22 05:14:24;;;;;;;5.55;1.45;;;12.80;99.60;;;;;;2063762;28;20026;-68
2021/05/22 05:15:25;;;;;;;4.07;1.33;;;12.80;99.50;;;;;;2063958;28;20536;-68
2021/05/22 05:16:27;;;;;;;5.35;1.85;;;12.80;99.40;;;;;;2063962;28;20076;-68
2021/05/22 05:17:28;;;;;;;5.25;1.38;;;12.80;99.40;;;;;;2064202;28;20018;-68
2021/05/22 05:18:29;;;;;;;6.30;1.85;;;12.80;99.50;;;;;;2064062;28;20455;-68
2021/05/22 05:19:31;;;;;;;6.03;1.48;;;12.80;99.60;;;;;;2063859;28;20038;-68
2021/05/22 05:20:32;;;;;;;5.65;1.45;;;12.80;99.60;;;;;;2064028;28;20036;-68
2021/05/22 05:21:33;;;;;;;6.65;1.73;;;12.80;99.60;;;;;;2063968;28;20035;-69